sensor_id;sensor_type;location;lat;lon;timestamp;P1;durP1;ratioP1;P2;durP2;ratioP2
74510;SDS011;62991;50.040;18.400;2023-01-26T00:00:47;14.18;;;7.07;;
74510;SDS011;62991;50.040;18.400;2023-01-26T00:03:48;19.42;;;8.10;;
74510;SDS011;62991;50.040;18.400;2023-01-26T00:06:49;19.98;;;8.70;;
74510;SDS011;62991;50.040;18.400;2023-01-26T00:09:50;19.02;;;7.80;;
74510;SDS011;62991;50.040;18.400;2023-01-26T00:12:50;29.75;;;16.92;;
74510;SDS011;62991;50.040;18.400;2023-01-26T00:15:51;22.75;;;9.98;;
74510;SDS011;62991;50.040;18.400;2023-01-26T00:18:52;15.68;;;5.95;;
74510;SDS011;62991;50.040;18.400;2023-01-26T00:21:53;17.85;;;8.30;;
74510;SDS011;62991;50.040;18.400;2023-01-26T00:24:54;31.17;;;12.55;;
74510;SDS011;62991;50.040;18.400;2023-01-26T00:27:55;29.90;;;11.93;;
74510;SDS011;62991;50.040;18.400;2023-01-26T00:31:03;27.45;;;12.82;;
74510;SDS011;62991;50.040;18.400;2023-01-26T00:34:05;20.70;;;8.82;;
74510;SDS011;62991;50.040;18.400;2023-01-26T00:37:06;20.52;;;7.45;;
74510;SDS011;62991;50.040;18.400;2023-01-26T00:40:07;16.27;;;7.53;;
74510;SDS011;62991;50.040;18.400;2023-01-26T00:43:08;18.17;;;7.55;;
74510;SDS011;62991;50.040;18.400;2023-01-26T00:46:09;20.85;;;8.00;;
74510;SDS011;62991;50.040;18.400;2023-01-26T00:49:10;18.80;;;8.02;;
74510;SDS011;62991;50.040;18.400;2023-01-26T00:52:11;20.70;;;9.35;;
74510;SDS011;62991;50.040;18.400;2023-01-26T00:55:12;25.88;;;11.60;;
74510;SDS011;62991;50.040;18.400;2023-01-26T00:58:12;29.48;;;12.55;;
74510;SDS011;62991;50.040;18.400;2023-01-26T01:01:13;21.65;;;10.10;;
74510;SDS011;62991;50.040;18.400;2023-01-26T01:04:14;28.40;;;9.45;;
74510;SDS011;62991;50.040;18.400;2023-01-26T01:07:15;27.05;;;11.43;;
74510;SDS011;62991;50.040;18.400;2023-01-26T01:10:16;20.92;;;9.27;;
74510;SDS011;62991;50.040;18.400;2023-01-26T01:13:16;23.90;;;10.63;;
74510;SDS011;62991;50.040;18.400;2023-01-26T01:16:17;20.15;;;8.07;;
74510;SDS011;62991;50.040;18.400;2023-01-26T01:19:18;18.65;;;7.50;;
74510;SDS011;62991;50.040;18.400;2023-01-26T01:22:19;22.13;;;8.25;;
74510;SDS011;62991;50.040;18.400;2023-01-26T01:25:19;18.85;;;7.95;;
74510;SDS011;62991;50.040;18.400;2023-01-26T01:28:20;15.25;;;7.32;;
74510;SDS011;62991;50.040;18.400;2023-01-26T01:31:21;17.35;;;7.78;;
74510;SDS011;62991;50.040;18.400;2023-01-26T01:34:21;17.90;;;7.68;;
74510;SDS011;62991;50.040;18.400;2023-01-26T01:37:22;19.60;;;8.35;;
74510;SDS011;62991;50.040;18.400;2023-01-26T01:40:23;16.27;;;6.50;;
74510;SDS011;62991;50.040;18.400;2023-01-26T01:43:24;17.10;;;7.68;;
74510;SDS011;62991;50.040;18.400;2023-01-26T01:46:32;16.40;;;8.13;;
74510;SDS011;62991;50.040;18.400;2023-01-26T01:49:42;22.75;;;9.00;;
74510;SDS011;62991;50.040;18.400;2023-01-26T01:52:46;19.00;;;8.27;;
74510;SDS011;62991;50.040;18.400;2023-01-26T01:55:48;21.83;;;9.00;;
74510;SDS011;62991;50.040;18.400;2023-01-26T01:58:50;20.52;;;8.68;;
74510;SDS011;62991;50.040;18.400;2023-01-26T02:01:54;16.08;;;7.35;;
74510;SDS011;62991;50.040;18.400;2023-01-26T02:04:56;12.13;;;6.93;;
74510;SDS011;62991;50.040;18.400;2023-01-26T02:08:01;17.73;;;7.80;;
74510;SDS011;62991;50.040;18.400;2023-01-26T02:11:05;22.15;;;9.23;;
74510;SDS011;62991;50.040;18.400;2023-01-26T02:14:08;18.98;;;7.72;;
74510;SDS011;62991;50.040;18.400;2023-01-26T02:17:11;20.02;;;8.02;;
74510;SDS011;62991;50.040;18.400;2023-01-26T02:20:19;20.17;;;8.40;;
74510;SDS011;62991;50.040;18.400;2023-01-26T02:27:09;30.90;;;9.63;;
74510;SDS011;62991;50.040;18.400;2023-01-26T02:30:10;14.80;;;6.55;;
74510;SDS011;62991;50.040;18.400;2023-01-26T02:33:13;26.88;;;7.97;;
74510;SDS011;62991;50.040;18.400;2023-01-26T02:36:25;19.00;;;8.82;;
74510;SDS011;62991;50.040;18.400;2023-01-26T02:39:39;16.35;;;8.23;;
74510;SDS011;62991;50.040;18.400;2023-01-26T02:42:44;18.85;;;8.00;;
74510;SDS011;62991;50.040;18.400;2023-01-26T02:45:45;26.58;;;9.93;;
74510;SDS011;62991;50.040;18.400;2023-01-26T02:48:46;26.40;;;10.35;;
74510;SDS011;62991;50.040;18.400;2023-01-26T02:52:05;24.02;;;11.50;;
74510;SDS011;62991;50.040;18.400;2023-01-26T02:55:06;31.10;;;11.02;;
74510;SDS011;62991;50.040;18.400;2023-01-26T02:58:24;25.00;;;9.90;;
74510;SDS011;62991;50.040;18.400;2023-01-26T03:01:24;24.83;;;10.80;;
74510;SDS011;62991;50.040;18.400;2023-01-26T03:04:25;21.83;;;10.20;;
74510;SDS011;62991;50.040;18.400;2023-01-26T03:07:26;27.17;;;10.13;;
74510;SDS011;62991;50.040;18.400;2023-01-26T03:10:27;19.40;;;9.10;;
74510;SDS011;62991;50.040;18.400;2023-01-26T03:13:28;19.10;;;9.25;;
74510;SDS011;62991;50.040;18.400;2023-01-26T03:16:28;30.95;;;10.88;;
74510;SDS011;62991;50.040;18.400;2023-01-26T03:19:29;25.63;;;9.95;;
74510;SDS011;62991;50.040;18.400;2023-01-26T03:22:48;22.63;;;11.20;;
74510;SDS011;62991;50.040;18.400;2023-01-26T03:26:09;23.88;;;9.10;;
74510;SDS011;62991;50.040;18.400;2023-01-26T03:29:28;22.83;;;10.13;;
74510;SDS011;62991;50.040;18.400;2023-01-26T03:32:29;24.15;;;9.93;;
74510;SDS011;62991;50.040;18.400;2023-01-26T03:35:30;19.83;;;9.63;;
74510;SDS011;62991;50.040;18.400;2023-01-26T03:38:31;28.50;;;10.32;;
74510;SDS011;62991;50.040;18.400;2023-01-26T03:41:32;27.23;;;10.52;;
74510;SDS011;62991;50.040;18.400;2023-01-26T03:44:51;28.17;;;9.38;;
74510;SDS011;62991;50.040;18.400;2023-01-26T03:48:11;23.85;;;9.30;;
74510;SDS011;62991;50.040;18.400;2023-01-26T03:51:30;23.52;;;9.55;;
74510;SDS011;62991;50.040;18.400;2023-01-26T03:54:50;27.77;;;9.02;;
74510;SDS011;62991;50.040;18.400;2023-01-26T03:58:09;23.42;;;9.23;;
74510;SDS011;62991;50.040;18.400;2023-01-26T04:01:10;28.30;;;11.77;;
74510;SDS011;62991;50.040;18.400;2023-01-26T04:04:18;26.25;;;10.43;;
74510;SDS011;62991;50.040;18.400;2023-01-26T04:07:38;26.80;;;9.52;;
74510;SDS011;62991;50.040;18.400;2023-01-26T04:10:57;22.52;;;10.48;;
74510;SDS011;62991;50.040;18.400;2023-01-26T04:13:58;26.95;;;11.02;;
74510;SDS011;62991;50.040;18.400;2023-01-26T04:17:17;23.27;;;10.77;;
74510;SDS011;62991;50.040;18.400;2023-01-26T04:20:36;29.25;;;10.27;;
74510;SDS011;62991;50.040;18.400;2023-01-26T04:23:56;28.90;;;11.45;;
74510;SDS011;62991;50.040;18.400;2023-01-26T04:26:57;22.13;;;10.95;;
74510;SDS011;62991;50.040;18.400;2023-01-26T04:29:58;31.13;;;13.90;;
74510;SDS011;62991;50.040;18.400;2023-01-26T04:32:59;48.65;;;17.65;;
74510;SDS011;62991;50.040;18.400;2023-01-26T04:36:03;35.53;;;15.57;;
74510;SDS011;62991;50.040;18.400;2023-01-26T04:39:06;40.45;;;14.13;;
74510;SDS011;62991;50.040;18.400;2023-01-26T04:42:07;34.67;;;13.18;;
74510;SDS011;62991;50.040;18.400;2023-01-26T04:45:08;144.88;;;42.67;;
74510;SDS011;62991;50.040;18.400;2023-01-26T04:48:09;92.63;;;33.50;;
74510;SDS011;62991;50.040;18.400;2023-01-26T04:51:11;54.83;;;25.83;;
74510;SDS011;62991;50.040;18.400;2023-01-26T04:54:13;46.53;;;17.60;;
74510;SDS011;62991;50.040;18.400;2023-01-26T04:57:14;120.70;;;45.22;;
74510;SDS011;62991;50.040;18.400;2023-01-26T05:00:14;55.88;;;21.67;;
74510;SDS011;62991;50.040;18.400;2023-01-26T05:03:15;35.97;;;15.02;;
74510;SDS011;62991;50.040;18.400;2023-01-26T05:06:16;26.05;;;11.43;;
74510;SDS011;62991;50.040;18.400;2023-01-26T05:09:17;34.10;;;13.82;;
74510;SDS011;62991;50.040;18.400;2023-01-26T05:12:18;46.08;;;13.25;;
74510;SDS011;62991;50.040;18.400;2023-01-26T05:15:34;32.63;;;12.95;;
74510;SDS011;62991;50.040;18.400;2023-01-26T05:18:35;40.35;;;14.32;;
74510;SDS011;62991;50.040;18.400;2023-01-26T05:21:36;45.25;;;15.93;;
74510;SDS011;62991;50.040;18.400;2023-01-26T05:24:36;34.58;;;14.43;;
74510;SDS011;62991;50.040;18.400;2023-01-26T05:27:37;47.88;;;16.05;;
74510;SDS011;62991;50.040;18.400;2023-01-26T05:30:38;54.75;;;18.98;;
74510;SDS011;62991;50.040;18.400;2023-01-26T05:33:38;45.00;;;17.00;;
74510;SDS011;62991;50.040;18.400;2023-01-26T05:36:39;44.35;;;16.73;;
74510;SDS011;62991;50.040;18.400;2023-01-26T05:39:40;50.92;;;18.83;;
74510;SDS011;62991;50.040;18.400;2023-01-26T05:42:41;48.80;;;18.50;;
74510;SDS011;62991;50.040;18.400;2023-01-26T05:45:42;42.88;;;17.08;;
74510;SDS011;62991;50.040;18.400;2023-01-26T05:48:43;36.53;;;16.30;;
74510;SDS011;62991;50.040;18.400;2023-01-26T05:51:44;41.13;;;17.02;;
74510;SDS011;62991;50.040;18.400;2023-01-26T05:54:45;43.05;;;17.08;;
74510;SDS011;62991;50.040;18.400;2023-01-26T05:57:46;34.13;;;15.90;;
74510;SDS011;62991;50.040;18.400;2023-01-26T06:00:46;38.78;;;14.32;;
74510;SDS011;62991;50.040;18.400;2023-01-26T06:03:47;37.03;;;13.80;;
74510;SDS011;62991;50.040;18.400;2023-01-26T06:06:48;28.38;;;11.95;;
74510;SDS011;62991;50.040;18.400;2023-01-26T06:09:51;36.25;;;12.63;;
74510;SDS011;62991;50.040;18.400;2023-01-26T06:12:52;26.00;;;12.30;;
74510;SDS011;62991;50.040;18.400;2023-01-26T06:15:53;34.47;;;13.57;;
74510;SDS011;62991;50.040;18.400;2023-01-26T06:18:53;32.78;;;12.82;;
74510;SDS011;62991;50.040;18.400;2023-01-26T06:21:54;33.78;;;13.43;;
74510;SDS011;62991;50.040;18.400;2023-01-26T06:24:55;29.80;;;12.32;;
74510;SDS011;62991;50.040;18.400;2023-01-26T06:27:56;36.13;;;12.45;;
74510;SDS011;62991;50.040;18.400;2023-01-26T06:30:58;27.00;;;10.63;;
74510;SDS011;62991;50.040;18.400;2023-01-26T06:34:00;24.05;;;10.10;;
74510;SDS011;62991;50.040;18.400;2023-01-26T06:37:00;28.73;;;10.93;;
74510;SDS011;62991;50.040;18.400;2023-01-26T06:40:01;29.67;;;10.68;;
74510;SDS011;62991;50.040;18.400;2023-01-26T06:43:02;29.15;;;11.23;;
74510;SDS011;62991;50.040;18.400;2023-01-26T06:46:03;33.00;;;11.82;;
74510;SDS011;62991;50.040;18.400;2023-01-26T06:49:04;31.45;;;14.82;;
74510;SDS011;62991;50.040;18.400;2023-01-26T06:55:23;97.93;;;31.38;;
74510;SDS011;62991;50.040;18.400;2023-01-26T06:58:35;64.85;;;29.95;;
74510;SDS011;62991;50.040;18.400;2023-01-26T07:01:36;76.25;;;27.17;;
74510;SDS011;62991;50.040;18.400;2023-01-26T07:04:40;65.82;;;23.95;;
74510;SDS011;62991;50.040;18.400;2023-01-26T07:07:41;85.22;;;29.05;;
74510;SDS011;62991;50.040;18.400;2023-01-26T07:10:42;143.27;;;56.25;;
74510;SDS011;62991;50.040;18.400;2023-01-26T07:13:43;176.63;;;61.13;;
74510;SDS011;62991;50.040;18.400;2023-01-26T07:16:43;86.10;;;26.10;;
74510;SDS011;62991;50.040;18.400;2023-01-26T07:19:44;74.03;;;24.38;;
74510;SDS011;62991;50.040;18.400;2023-01-26T07:22:45;65.45;;;23.02;;
74510;SDS011;62991;50.040;18.400;2023-01-26T07:25:45;67.95;;;24.20;;
74510;SDS011;62991;50.040;18.400;2023-01-26T07:28:46;67.03;;;22.42;;
74510;SDS011;62991;50.040;18.400;2023-01-26T07:31:47;179.85;;;53.92;;
74510;SDS011;62991;50.040;18.400;2023-01-26T07:34:47;248.93;;;78.18;;
74510;SDS011;62991;50.040;18.400;2023-01-26T07:37:48;165.10;;;49.42;;
74510;SDS011;62991;50.040;18.400;2023-01-26T07:40:49;159.93;;;53.35;;
74510;SDS011;62991;50.040;18.400;2023-01-26T07:43:50;134.15;;;46.10;;
74510;SDS011;62991;50.040;18.400;2023-01-26T07:46:51;182.85;;;70.88;;
74510;SDS011;62991;50.040;18.400;2023-01-26T07:49:53;63.65;;;24.02;;
74510;SDS011;62991;50.040;18.400;2023-01-26T07:52:54;43.80;;;18.02;;
74510;SDS011;62991;50.040;18.400;2023-01-26T07:56:03;33.42;;;13.82;;
74510;SDS011;62991;50.040;18.400;2023-01-26T07:59:05;35.72;;;13.65;;
74510;SDS011;62991;50.040;18.400;2023-01-26T08:02:08;44.22;;;17.20;;
74510;SDS011;62991;50.040;18.400;2023-01-26T08:05:09;42.67;;;18.20;;
74510;SDS011;62991;50.040;18.400;2023-01-26T08:08:10;49.55;;;17.48;;
74510;SDS011;62991;50.040;18.400;2023-01-26T08:11:11;58.67;;;18.85;;
74510;SDS011;62991;50.040;18.400;2023-01-26T08:14:12;44.10;;;15.73;;
74510;SDS011;62991;50.040;18.400;2023-01-26T08:17:12;33.65;;;13.82;;
74510;SDS011;62991;50.040;18.400;2023-01-26T08:20:16;38.22;;;15.57;;
74510;SDS011;62991;50.040;18.400;2023-01-26T08:23:16;37.15;;;16.50;;
74510;SDS011;62991;50.040;18.400;2023-01-26T08:26:18;42.22;;;17.02;;
74510;SDS011;62991;50.040;18.400;2023-01-26T08:29:19;43.20;;;18.13;;
74510;SDS011;62991;50.040;18.400;2023-01-26T08:32:20;67.20;;;24.95;;
74510;SDS011;62991;50.040;18.400;2023-01-26T08:35:20;46.60;;;18.60;;
74510;SDS011;62991;50.040;18.400;2023-01-26T08:38:21;62.08;;;23.08;;
74510;SDS011;62991;50.040;18.400;2023-01-26T08:41:22;78.63;;;26.80;;
74510;SDS011;62991;50.040;18.400;2023-01-26T08:44:22;49.88;;;18.83;;
74510;SDS011;62991;50.040;18.400;2023-01-26T08:47:23;33.22;;;14.02;;
74510;SDS011;62991;50.040;18.400;2023-01-26T08:50:24;47.65;;;17.80;;
74510;SDS011;62991;50.040;18.400;2023-01-26T08:53:25;46.10;;;20.85;;
74510;SDS011;62991;50.040;18.400;2023-01-26T08:56:28;45.28;;;17.08;;
74510;SDS011;62991;50.040;18.400;2023-01-26T08:59:29;43.53;;;16.92;;
74510;SDS011;62991;50.040;18.400;2023-01-26T09:02:29;44.63;;;16.52;;
74510;SDS011;62991;50.040;18.400;2023-01-26T09:05:30;35.20;;;15.43;;
74510;SDS011;62991;50.040;18.400;2023-01-26T09:08:33;36.72;;;13.57;;
74510;SDS011;62991;50.040;18.400;2023-01-26T09:11:34;35.00;;;14.82;;
74510;SDS011;62991;50.040;18.400;2023-01-26T09:14:34;53.28;;;21.25;;
74510;SDS011;62991;50.040;18.400;2023-01-26T09:17:35;66.97;;;23.17;;
74510;SDS011;62991;50.040;18.400;2023-01-26T09:20:36;40.47;;;16.40;;
74510;SDS011;62991;50.040;18.400;2023-01-26T09:23:38;33.50;;;13.98;;
74510;SDS011;62991;50.040;18.400;2023-01-26T09:26:38;36.47;;;14.20;;
74510;SDS011;62991;50.040;18.400;2023-01-26T09:29:39;26.83;;;12.43;;
74510;SDS011;62991;50.040;18.400;2023-01-26T09:32:40;40.70;;;18.63;;
74510;SDS011;62991;50.040;18.400;2023-01-26T09:35:40;51.38;;;20.50;;
74510;SDS011;62991;50.040;18.400;2023-01-26T09:38:41;58.17;;;23.35;;
74510;SDS011;62991;50.040;18.400;2023-01-26T09:41:46;43.30;;;19.88;;
74510;SDS011;62991;50.040;18.400;2023-01-26T09:51:21;50.72;;;19.13;;
74510;SDS011;62991;50.040;18.400;2023-01-26T09:54:33;35.13;;;14.52;;
74510;SDS011;62991;50.040;18.400;2023-01-26T09:58:02;36.20;;;13.63;;
74510;SDS011;62991;50.040;18.400;2023-01-26T10:01:08;37.95;;;14.57;;
74510;SDS011;62991;50.040;18.400;2023-01-26T10:04:32;34.90;;;13.63;;
74510;SDS011;62991;50.040;18.400;2023-01-26T10:07:35;43.00;;;15.05;;
74510;SDS011;62991;50.040;18.400;2023-01-26T10:10:37;33.15;;;13.90;;
74510;SDS011;62991;50.040;18.400;2023-01-26T10:13:49;38.72;;;14.45;;
74510;SDS011;62991;50.040;18.400;2023-01-26T10:16:54;35.45;;;13.05;;
74510;SDS011;62991;50.040;18.400;2023-01-26T10:23:36;40.97;;;14.43;;
74510;SDS011;62991;50.040;18.400;2023-01-26T10:26:44;171.35;;;61.38;;
74510;SDS011;62991;50.040;18.400;2023-01-26T10:29:45;142.13;;;49.17;;
74510;SDS011;62991;50.040;18.400;2023-01-26T10:32:46;39.72;;;16.23;;
74510;SDS011;62991;50.040;18.400;2023-01-26T10:35:52;84.20;;;39.50;;
74510;SDS011;62991;50.040;18.400;2023-01-26T10:38:53;56.78;;;23.77;;
74510;SDS011;62991;50.040;18.400;2023-01-26T10:42:02;44.72;;;16.63;;
74510;SDS011;62991;50.040;18.400;2023-01-26T10:45:21;32.13;;;12.07;;
74510;SDS011;62991;50.040;18.400;2023-01-26T10:48:25;35.20;;;12.70;;
74510;SDS011;62991;50.040;18.400;2023-01-26T10:51:30;50.60;;;19.40;;
74510;SDS011;62991;50.040;18.400;2023-01-26T10:54:32;34.25;;;14.95;;
74510;SDS011;62991;50.040;18.400;2023-01-26T10:57:39;45.08;;;18.90;;
74510;SDS011;62991;50.040;18.400;2023-01-26T11:00:41;39.78;;;14.90;;
74510;SDS011;62991;50.040;18.400;2023-01-26T11:03:42;23.35;;;10.45;;
74510;SDS011;62991;50.040;18.400;2023-01-26T11:10:38;30.45;;;12.65;;
74510;SDS011;62991;50.040;18.400;2023-01-26T11:14:36;42.05;;;14.57;;
74510;SDS011;62991;50.040;18.400;2023-01-26T11:17:15;40.47;;;13.95;;
74510;SDS011;62991;50.040;18.400;2023-01-26T11:33:30;35.92;;;13.40;;
74510;SDS011;62991;50.040;18.400;2023-01-26T11:46:50;33.85;;;11.77;;
74510;SDS011;62991;50.040;18.400;2023-01-26T11:59:52;17.85;;;6.72;;
74510;SDS011;62991;50.040;18.400;2023-01-26T12:03:22;23.70;;;8.85;;
74510;SDS011;62991;50.040;18.400;2023-01-26T12:06:39;19.55;;;8.02;;
74510;SDS011;62991;50.040;18.400;2023-01-26T12:09:45;24.13;;;7.60;;
74510;SDS011;62991;50.040;18.400;2023-01-26T12:12:48;16.40;;;6.68;;
74510;SDS011;62991;50.040;18.400;2023-01-26T12:16:02;24.65;;;8.57;;
74510;SDS011;62991;50.040;18.400;2023-01-26T12:25:34;24.52;;;8.80;;
74510;SDS011;62991;50.040;18.400;2023-01-26T12:28:46;34.40;;;13.25;;
74510;SDS011;62991;50.040;18.400;2023-01-26T12:31:59;38.20;;;15.43;;
74510;SDS011;62991;50.040;18.400;2023-01-26T12:35:11;39.40;;;16.00;;
74510;SDS011;62991;50.040;18.400;2023-01-26T12:38:13;36.10;;;14.00;;
74510;SDS011;62991;50.040;18.400;2023-01-26T12:44:57;27.70;;;11.30;;
74510;SDS011;62991;50.040;18.400;2023-01-26T12:51:20;25.13;;;8.68;;
74510;SDS011;62991;50.040;18.400;2023-01-26T12:57:46;22.33;;;8.25;;
74510;SDS011;62991;50.040;18.400;2023-01-26T13:00:59;16.77;;;7.35;;
74510;SDS011;62991;50.040;18.400;2023-01-26T13:04:07;19.52;;;7.63;;
74510;SDS011;62991;50.040;18.400;2023-01-26T13:10:28;22.13;;;8.00;;
74510;SDS011;62991;50.040;18.400;2023-01-26T13:13:55;22.10;;;8.68;;
74510;SDS011;62991;50.040;18.400;2023-01-26T13:16:57;24.42;;;10.30;;
74510;SDS011;62991;50.040;18.400;2023-01-26T13:20:23;20.27;;;9.50;;
74510;SDS011;62991;50.040;18.400;2023-01-26T13:23:40;22.65;;;8.80;;
74510;SDS011;62991;50.040;18.400;2023-01-26T13:26:43;24.05;;;9.77;;
74510;SDS011;62991;50.040;18.400;2023-01-26T13:29:52;28.83;;;10.93;;
74510;SDS011;62991;50.040;18.400;2023-01-26T13:36:18;27.83;;;10.15;;
74510;SDS011;62991;50.040;18.400;2023-01-26T13:39:33;30.73;;;9.90;;
74510;SDS011;62991;50.040;18.400;2023-01-26T13:42:36;25.98;;;8.52;;
74510;SDS011;62991;50.040;18.400;2023-01-26T13:45:54;26.58;;;9.63;;
74510;SDS011;62991;50.040;18.400;2023-01-26T13:49:24;23.05;;;8.80;;
74510;SDS011;62991;50.040;18.400;2023-01-26T13:52:31;18.67;;;8.13;;
74510;SDS011;62991;50.040;18.400;2023-01-26T13:55:32;21.55;;;8.82;;
74510;SDS011;62991;50.040;18.400;2023-01-26T13:58:33;23.35;;;10.32;;
74510;SDS011;62991;50.040;18.400;2023-01-26T14:01:39;30.20;;;12.15;;
74510;SDS011;62991;50.040;18.400;2023-01-26T14:04:49;27.17;;;10.45;;
74510;SDS011;62991;50.040;18.400;2023-01-26T14:07:51;22.73;;;10.27;;
74510;SDS011;62991;50.040;18.400;2023-01-26T14:10:52;35.42;;;12.40;;
74510;SDS011;62991;50.040;18.400;2023-01-26T14:13:57;57.08;;;17.88;;
74510;SDS011;62991;50.040;18.400;2023-01-26T14:17:00;52.33;;;17.33;;
74510;SDS011;62991;50.040;18.400;2023-01-26T14:23:34;40.55;;;14.80;;
74510;SDS011;62991;50.040;18.400;2023-01-26T14:26:35;49.75;;;17.20;;
74510;SDS011;62991;50.040;18.400;2023-01-26T14:29:37;39.70;;;13.85;;
74510;SDS011;62991;50.040;18.400;2023-01-26T14:32:38;36.92;;;15.07;;
74510;SDS011;62991;50.040;18.400;2023-01-26T14:35:40;38.70;;;14.45;;
74510;SDS011;62991;50.040;18.400;2023-01-26T14:38:44;36.25;;;14.13;;
74510;SDS011;62991;50.040;18.400;2023-01-26T14:41:46;41.25;;;13.88;;
74510;SDS011;62991;50.040;18.400;2023-01-26T14:44:48;34.88;;;12.85;;
74510;SDS011;62991;50.040;18.400;2023-01-26T14:47:48;33.85;;;12.07;;
74510;SDS011;62991;50.040;18.400;2023-01-26T14:50:52;38.65;;;12.85;;
74510;SDS011;62991;50.040;18.400;2023-01-26T14:53:54;32.15;;;13.30;;
74510;SDS011;62991;50.040;18.400;2023-01-26T14:56:59;29.02;;;12.68;;
74510;SDS011;62991;50.040;18.400;2023-01-26T15:00:00;34.08;;;13.93;;
74510;SDS011;62991;50.040;18.400;2023-01-26T15:03:11;36.38;;;12.40;;
74510;SDS011;62991;50.040;18.400;2023-01-26T15:06:17;39.88;;;13.05;;
74510;SDS011;62991;50.040;18.400;2023-01-26T15:09:21;47.30;;;17.02;;
74510;SDS011;62991;50.040;18.400;2023-01-26T15:12:25;58.80;;;21.10;;
74510;SDS011;62991;50.040;18.400;2023-01-26T15:15:30;63.10;;;21.30;;
74510;SDS011;62991;50.040;18.400;2023-01-26T15:18:37;49.80;;;19.20;;
74510;SDS011;62991;50.040;18.400;2023-01-26T15:21:37;39.75;;;18.17;;
74510;SDS011;62991;50.040;18.400;2023-01-26T15:24:46;41.08;;;16.63;;
74510;SDS011;62991;50.040;18.400;2023-01-26T15:27:58;42.83;;;16.33;;
74510;SDS011;62991;50.040;18.400;2023-01-26T15:30:59;43.53;;;15.25;;
74510;SDS011;62991;50.040;18.400;2023-01-26T15:34:01;40.38;;;16.05;;
74510;SDS011;62991;50.040;18.400;2023-01-26T15:40:30;39.05;;;17.33;;
74510;SDS011;62991;50.040;18.400;2023-01-26T15:43:31;39.05;;;16.08;;
74510;SDS011;62991;50.040;18.400;2023-01-26T15:46:31;45.28;;;16.48;;
74510;SDS011;62991;50.040;18.400;2023-01-26T15:49:32;37.80;;;17.65;;
74510;SDS011;62991;50.040;18.400;2023-01-26T15:52:33;39.05;;;16.52;;
74510;SDS011;62991;50.040;18.400;2023-01-26T15:55:33;38.55;;;14.82;;
74510;SDS011;62991;50.040;18.400;2023-01-26T15:58:35;46.78;;;18.67;;
74510;SDS011;62991;50.040;18.400;2023-01-26T16:01:36;48.40;;;18.92;;
74510;SDS011;62991;50.040;18.400;2023-01-26T16:04:36;47.65;;;19.73;;
74510;SDS011;62991;50.040;18.400;2023-01-26T16:07:37;42.10;;;17.85;;
74510;SDS011;62991;50.040;18.400;2023-01-26T16:10:38;48.83;;;17.65;;
74510;SDS011;62991;50.040;18.400;2023-01-26T16:13:39;45.08;;;17.10;;
74510;SDS011;62991;50.040;18.400;2023-01-26T16:16:43;46.55;;;17.77;;
74510;SDS011;62991;50.040;18.400;2023-01-26T16:19:43;61.17;;;23.05;;
74510;SDS011;62991;50.040;18.400;2023-01-26T16:22:44;55.63;;;20.80;;
74510;SDS011;62991;50.040;18.400;2023-01-26T16:25:45;53.30;;;18.95;;
74510;SDS011;62991;50.040;18.400;2023-01-26T16:28:46;45.97;;;17.20;;
74510;SDS011;62991;50.040;18.400;2023-01-26T16:31:47;54.47;;;19.70;;
74510;SDS011;62991;50.040;18.400;2023-01-26T16:34:47;50.63;;;18.58;;
74510;SDS011;62991;50.040;18.400;2023-01-26T16:37:48;59.35;;;21.63;;
74510;SDS011;62991;50.040;18.400;2023-01-26T16:40:51;72.22;;;24.83;;
74510;SDS011;62991;50.040;18.400;2023-01-26T16:43:57;36.03;;;15.60;;
74510;SDS011;62991;50.040;18.400;2023-01-26T16:46:59;47.20;;;17.90;;
74510;SDS011;62991;50.040;18.400;2023-01-26T16:50:00;41.67;;;17.65;;
74510;SDS011;62991;50.040;18.400;2023-01-26T16:53:01;39.00;;;14.63;;
74510;SDS011;62991;50.040;18.400;2023-01-26T16:56:22;40.78;;;14.88;;
74510;SDS011;62991;50.040;18.400;2023-01-26T16:59:23;35.67;;;13.55;;
74510;SDS011;62991;50.040;18.400;2023-01-26T17:02:25;38.78;;;14.65;;
74510;SDS011;62991;50.040;18.400;2023-01-26T17:05:29;39.00;;;13.43;;
74510;SDS011;62991;50.040;18.400;2023-01-26T17:08:29;26.90;;;11.52;;
74510;SDS011;62991;50.040;18.400;2023-01-26T17:11:30;31.13;;;11.15;;
74510;SDS011;62991;50.040;18.400;2023-01-26T17:14:31;30.52;;;11.50;;
74510;SDS011;62991;50.040;18.400;2023-01-26T17:17:31;38.97;;;14.25;;
74510;SDS011;62991;50.040;18.400;2023-01-26T17:20:32;29.42;;;11.75;;
74510;SDS011;62991;50.040;18.400;2023-01-26T17:23:33;23.80;;;10.48;;
74510;SDS011;62991;50.040;18.400;2023-01-26T17:26:36;26.92;;;12.45;;
74510;SDS011;62991;50.040;18.400;2023-01-26T17:29:37;25.63;;;11.57;;
74510;SDS011;62991;50.040;18.400;2023-01-26T17:32:41;29.42;;;11.70;;
74510;SDS011;62991;50.040;18.400;2023-01-26T17:35:42;35.92;;;13.10;;
74510;SDS011;62991;50.040;18.400;2023-01-26T17:38:42;33.22;;;12.23;;
74510;SDS011;62991;50.040;18.400;2023-01-26T17:41:43;33.83;;;13.52;;
74510;SDS011;62991;50.040;18.400;2023-01-26T17:44:44;34.53;;;13.75;;
74510;SDS011;62991;50.040;18.400;2023-01-26T17:47:45;23.90;;;10.38;;
74510;SDS011;62991;50.040;18.400;2023-01-26T17:50:48;27.05;;;10.95;;
74510;SDS011;62991;50.040;18.400;2023-01-26T17:53:49;36.40;;;13.38;;
74510;SDS011;62991;50.040;18.400;2023-01-26T17:56:50;30.80;;;12.50;;
74510;SDS011;62991;50.040;18.400;2023-01-26T17:59:51;28.08;;;9.75;;
74510;SDS011;62991;50.040;18.400;2023-01-26T18:02:51;23.88;;;10.10;;
74510;SDS011;62991;50.040;18.400;2023-01-26T18:05:52;41.40;;;14.35;;
74510;SDS011;62991;50.040;18.400;2023-01-26T18:08:54;20.23;;;10.52;;
74510;SDS011;62991;50.040;18.400;2023-01-26T18:11:54;29.17;;;10.73;;
74510;SDS011;62991;50.040;18.400;2023-01-26T18:14:55;58.15;;;21.08;;
74510;SDS011;62991;50.040;18.400;2023-01-26T18:17:56;56.58;;;20.83;;
74510;SDS011;62991;50.040;18.400;2023-01-26T18:20:56;53.97;;;21.48;;
74510;SDS011;62991;50.040;18.400;2023-01-26T18:24:08;28.17;;;12.43;;
74510;SDS011;62991;50.040;18.400;2023-01-26T18:27:09;38.97;;;13.30;;
74510;SDS011;62991;50.040;18.400;2023-01-26T18:30:10;36.75;;;13.23;;
74510;SDS011;62991;50.040;18.400;2023-01-26T18:33:11;25.25;;;11.93;;
74510;SDS011;62991;50.040;18.400;2023-01-26T18:36:13;35.20;;;13.00;;
74510;SDS011;62991;50.040;18.400;2023-01-26T18:39:15;21.17;;;10.65;;
74510;SDS011;62991;50.040;18.400;2023-01-26T18:42:16;26.00;;;9.95;;
74510;SDS011;62991;50.040;18.400;2023-01-26T18:45:17;22.38;;;8.90;;
74510;SDS011;62991;50.040;18.400;2023-01-26T18:48:17;25.65;;;9.07;;
74510;SDS011;62991;50.040;18.400;2023-01-26T18:51:18;19.23;;;8.55;;
74510;SDS011;62991;50.040;18.400;2023-01-26T18:54:21;23.23;;;7.97;;
74510;SDS011;62991;50.040;18.400;2023-01-26T18:57:21;23.33;;;8.32;;
74510;SDS011;62991;50.040;18.400;2023-01-26T19:00:22;21.13;;;8.25;;
74510;SDS011;62991;50.040;18.400;2023-01-26T19:03:23;24.30;;;7.68;;
74510;SDS011;62991;50.040;18.400;2023-01-26T19:06:24;26.75;;;8.93;;